Time;durP1;ratioP1;P1;durP2;ratioP2;P2;SDS_P1;SDS_P2;PMS_P1;PMS_P2;Temp;Humidity;BMP_temperature;BMP_pressure;BME280_temperature;BME280_humidity;BME280_pressure;Samples;Min_cycle;Max_cycle;Signal;HPM_P1;HPM_P2
2021/09/20 00:00:12;;;;;;;;;;;;;;;12.29;82.79;96903.81;30001;983;1875;-60
2021/09/20 00:00:43;;;;;;;;;;;;;;;12.28;82.81;96913.91;30001;983;1880;-61
2021/09/20 00:01:14;;;;;;;;;;;;;;;12.29;82.87;96909.28;30001;983;1875;-60
2021/09/20 00:01:45;;;;;;;;;;;;;;;12.30;82.96;96916.31;30001;983;1879;-60
2021/09/20 00:02:16;;;;;;;;;;;;;;;12.31;82.93;96913.31;30001;983;1875;-59
2021/09/20 00:02:46;;;;;;;;;;;;;;;12.31;82.45;96907.84;30001;983;1880;-60
2021/09/20 00:03:17;;;;;;;;;;;;;;;12.32;82.51;96911.38;30001;983;1853;-60
2021/09/20 00:03:50;;;;;;;;;;;;;;;12.32;82.42;96911.38;30001;983;1875;-60
2021/09/20 00:04:21;;;;;;;;;;;;;;;12.31;82.60;96912.50;30001;983;1875;-59
2021/09/20 00:04:52;;;;;;;;;;;;;;;12.30;82.69;96908.97;30001;982;1880;-60
2021/09/20 00:05:22;;;;;;;;;;;;;;;12.29;82.84;96912.00;30001;982;1876;-60
2021/09/20 00:05:53;;;;;;;;;;;;;;;12.28;82.64;96902.22;30001;982;1880;-59
2021/09/20 00:06:24;;;;;;;;;;;;;;;12.27;82.81;96911.47;30001;982;1876;-60
2021/09/20 00:06:55;;;;;;;;;;;;;;;12.27;82.84;96911.47;30001;965;1875;-60
2021/09/20 00:07:29;;;;;;;;;;;;;;;12.24;82.94;96917.53;30001;983;1871;-60
2021/09/20 00:08:00;;;;;;;;;;;;;;;12.21;82.96;96913.50;30001;983;1879;-60
2021/09/20 00:08:30;;;;;;;;;;;;;;;12.20;83.05;96916.50;30001;983;1875;-60
2021/09/20 00:09:01;;;;;;;;;;;;;;;12.18;83.01;96913.28;30001;983;1880;-60
2021/09/20 00:09:32;;;;;;;;;;;;;;;12.17;83.32;96908.97;30001;983;1875;-60
2021/09/20 00:10:05;;;;;;;;;;;;;;;12.16;83.15;96910.06;30001;983;1814;-61
2021/09/20 00:10:36;;;;;;;;;;;;;;;12.13;83.28;96906.03;30001;983;1875;-57
2021/09/20 00:11:07;;;;;;;;;;;;;;;12.14;83.25;96913.09;30001;983;1880;-60
2021/09/20 00:11:38;;;;;;;;;;;;;;;12.14;83.30;96909.56;30001;983;1876;-59
2021/09/20 00:12:09;;;;;;;;;;;;;;;12.13;83.53;96908.75;30001;983;1858;-60
2021/09/20 00:12:40;;;;;;;;;;;;;;;12.14;83.44;96912.28;30001;982;1871;-60
2021/09/20 00:13:11;;;;;;;;;;;;;;;12.14;83.62;96902.22;30001;982;1880;-61
2021/09/20 00:13:42;;;;;;;;;;;;;;;12.12;83.83;96904.44;30001;982;1876;-61
2021/09/20 00:14:12;;;;;;;;;;;;;;;12.12;83.50;96906.37;30001;982;1880;-60
2021/09/20 00:14:43;;;;;;;;;;;;;;;12.12;83.82;96904.44;30001;982;1876;-60
2021/09/20 00:15:14;;;;;;;;;;;;;;;12.13;83.46;96905.25;30001;983;1880;-60
2021/09/20 00:15:45;;;;;;;;;;;;;;;12.11;83.43;96899.31;30001;983;1875;-60
2021/09/20 00:16:16;;;;;;;;;;;;;;;12.10;83.81;96905.87;30001;983;1879;-60
2021/09/20 00:16:47;;;;;;;;;;;;;;;12.08;83.85;96909.69;30001;983;1875;-60
2021/09/20 00:17:18;;;;;;;;;;;;;;;12.08;83.91;96904.25;30001;983;1858;-60
2021/09/20 00:17:49;;;;;;;;;;;;;;;12.07;83.72;96897.19;30001;983;1871;-60
2021/09/20 00:18:20;;;;;;;;;;;;;;;12.08;83.96;96904.25;30001;983;1880;-61
2021/09/20 00:18:50;;;;;;;;;;;;;;;12.06;84.08;96901.03;30001;983;1875;-60
2021/09/20 00:19:21;;;;;;;;;;;;;;;12.06;83.84;96905.66;30001;983;1880;-60
2021/09/20 00:19:52;;;;;;;;;;;;;;;12.05;84.10;96904.03;30001;982;1876;-60
2021/09/20 00:20:23;;;;;;;;;;;;;;;12.05;83.96;96899.41;30001;982;1880;-60
2021/09/20 00:20:53;;;;;;;;;;;;;;;12.05;83.89;96898.59;30001;982;1876;-60
2021/09/20 00:21:26;;;;;;;;;;;;;;;12.06;84.13;96903.75;30001;982;1880;-59
2021/09/20 00:21:57;;;;;;;;;;;;;;;12.07;83.84;96904.53;30001;982;1854;-60
2021/09/20 00:22:28;;;;;;;;;;;;;;;12.06;83.97;96906.47;30001;983;1875;-59
2021/09/20 00:22:59;;;;;;;;;;;;;;;12.06;84.09;96903.75;30001;983;1875;-60
2021/09/20 00:23:30;;;;;;;;;;;;;;;12.06;83.94;96903.75;30001;983;1879;-60
2021/09/20 00:24:01;;;;;;;;;;;;;;;12.07;84.11;96899.09;30001;983;1875;-60
2021/09/20 00:24:31;;;;;;;;;;;;;;;12.06;84.15;96906.47;30001;983;1880;-61
2021/09/20 00:25:03;;;;;;;;;;;;;;;12.06;84.05;96906.47;30001;983;1875;-60
2021/09/20 00:25:34;;;;;;;;;;;;;;;12.07;84.17;96908.06;30001;983;1880;-61
2021/09/20 00:26:05;;;;;;;;;;;;;;;12.06;84.05;96909.19;30001;983;1854;-59
2021/09/20 00:26:36;;;;;;;;;;;;;;;12.04;84.07;96908.69;30001;983;1876;-60
2021/09/20 00:27:10;;;;;;;;;;;;;;;12.04;84.10;96907.88;30001;983;1876;-60
2021/09/20 00:27:41;;;;;;;;;;;;;;;12.04;84.30;96903.25;30001;982;1880;-60
2021/09/20 00:28:11;;;;;;;;;;;;;;;12.02;84.49;96904.63;30001;982;1876;-61
2021/09/20 00:28:42;;;;;;;;;;;;;;;12.00;84.32;96907.66;30001;982;1880;-61
2021/09/20 00:29:13;;;;;;;;;;;;;;;12.00;84.52;96904.94;30001;982;1876;-61
2021/09/20 00:29:45;;;;;;;;;;;;;;;11.99;84.51;96906.03;30001;982;1858;-60
2021/09/20 00:30:16;;;;;;;;;;;;;;;11.97;84.48;96905.53;30001;983;1871;-60
2021/09/20 00:30:47;;;;;;;;;;;;;;;11.96;84.40;96906.66;30001;983;1858;-60
2021/09/20 00:31:18;;;;;;;;;;;;;;;11.98;84.35;96909.06;30001;983;1871;-60
2021/09/20 00:31:49;;;;;;;;;;;;;;;11.97;84.54;96902.81;30001;983;1880;-60
2021/09/20 00:32:19;;;;;;;;;;;;;;;11.96;84.63;96906.66;30001;983;1875;-60
2021/09/20 00:32:50;;;;;;;;;;;;;;;11.97;84.61;96902.00;30001;983;1880;-60
2021/09/20 00:33:21;;;;;;;;;;;;;;;11.96;84.56;96901.22;30001;983;1875;-61
2021/09/20 00:33:52;;;;;;;;;;;;;;;11.97;84.51;96904.75;30001;983;1858;-60
2021/09/20 00:34:22;;;;;;;;;;;;;;;11.95;84.58;96902.31;30001;982;1774;-61
2021/09/20 00:34:53;;;;;;;;;;;;;;;11.95;84.53;96905.03;30001;982;1791;-60
2021/09/20 00:35:24;;;;;;;;;;;;;;;11.95;84.48;96905.03;30001;982;1876;-59
2021/09/20 00:35:55;;;;;;;;;;;;;;;11.97;84.42;96908.25;30001;982;1880;-59
2021/09/20 00:36:26;;;;;;;;;;;;;;;11.97;84.16;96900.09;30001;982;1876;-61
2021/09/20 00:36:56;;;;;;;;;;;;;;;11.98;84.34;96907.16;30001;982;1858;-61
2021/09/20 00:37:27;;;;;;;;;;;;;;;11.99;84.31;96899.81;30001;983;1871;-61
2021/09/20 00:37:58;;;;;;;;;;;;;;;11.99;84.23;96894.38;30001;983;1879;-61
2021/09/20 00:38:29;;;;;;;;;;;;;;;11.99;84.29;96900.59;30001;983;1853;-60
2021/09/20 00:39:00;;;;;;;;;;;;;;;12.00;84.18;96906.84;30001;983;1875;-60
2021/09/20 00:39:31;;;;;;;;;;;;;;;11.99;84.77;96905.25;30001;983;1875;-61
2021/09/20 00:40:02;;;;;;;;;;;;;;;11.99;84.36;96900.59;30001;983;1880;-59
2021/09/20 00:40:34;;;;;;;;;;;;;;;11.99;84.62;96900.59;30001;983;1875;-61
2021/09/20 00:41:04;;;;;;;;;;;;;;;12.00;84.48;96899.50;30001;983;1880;-62
2021/09/20 00:41:35;;;;;;;;;;;;;;;12.01;84.53;96901.13;30001;983;1854;-60
2021/09/20 00:42:07;;;;;;;;;;;;;;;12.01;84.21;96900.31;30001;982;1876;-60
2021/09/20 00:42:38;;;;;;;;;;;;;;;12.00;84.18;96902.22;30001;982;1876;-60
2021/09/20 00:43:08;;;;;;;;;;;;;;;12.01;84.24;96903.03;30001;982;1880;-60
2021/09/20 00:43:39;;;;;;;;;;;;;;;12.01;84.46;96903.03;30001;982;1876;-60
2021/09/20 00:44:11;;;;;;;;;;;;;;;12.02;84.18;96910.88;30001;982;1880;-60
2021/09/20 00:44:42;;;;;;;;;;;;;;;12.03;84.42;96907.06;30001;982;1876;-62
2021/09/20 00:45:12;;;;;;;;;;;;;;;12.03;84.41;96907.06;30001;983;1880;-60
2021/09/20 00:45:43;;;;;;;;;;;;;;;12.05;84.36;96909.47;30001;983;1853;-58
2021/09/20 00:46:15;;;;;;;;;;;;;;;12.07;84.04;96910.78;30001;983;1876;-60
2021/09/20 00:46:46;;;;;;;;;;;;;;;12.08;84.51;96909.69;30001;983;1875;-59
2021/09/20 00:47:17;;;;;;;;;;;;;;;12.11;84.01;96910.19;30001;983;1880;-61
2021/09/20 00:47:48;;;;;;;;;;;;;;;12.12;84.21;96914.53;30001;983;1876;-60
2021/09/20 00:48:19;;;;;;;;;;;;;;;12.14;83.79;96912.28;30001;983;1880;-59
2021/09/20 00:48:50;;;;;;;;;;;;;;;12.12;83.98;96909.91;30001;983;1876;-60
2021/09/20 00:49:21;;;;;;;;;;;;;;;12.14;83.96;96917.72;30001;982;1880;-61
2021/09/20 00:49:51;;;;;;;;;;;;;;;12.14;83.96;96909.56;30001;982;1876;-60
2021/09/20 00:50:22;;;;;;;;;;;;;;;12.14;83.98;96917.72;30001;982;1859;-59
2021/09/20 00:50:54;;;;;;;;;;;;;;;12.13;83.81;96918.84;30001;982;1850;-60
2021/09/20 00:51:25;;;;;;;;;;;;;;;12.12;83.88;96914.53;30001;982;1880;-60
2021/09/20 00:51:55;;;;;;;;;;;;;;;12.11;84.24;96915.63;30001;982;1876;-60
2021/09/20 00:52:26;;;;;;;;;;;;;;;12.10;84.34;96919.47;30001;982;1880;-60
2021/09/20 00:52:57;;;;;;;;;;;;;;;12.10;84.21;96916.75;30001;983;1853;-60
2021/09/20 00:53:28;;;;;;;;;;;;;;;12.11;84.42;96915.63;30001;983;1853;-61
2021/09/20 00:53:59;;;;;;;;;;;;;;;12.12;84.37;96914.53;30001;983;1876;-59
2021/09/20 00:54:30;;;;;;;;;;;;;;;12.11;84.19;96918.34;30001;983;1880;-58
2021/09/20 00:55:01;;;;;;;;;;;;;;;12.10;84.35;96914.03;30001;983;1875;-60
2021/09/20 00:55:32;;;;;;;;;;;;;;;12.09;84.07;96921.37;30001;983;1880;-59
2021/09/20 00:56:04;;;;;;;;;;;;;;;12.07;84.26;96918.94;30001;983;1876;-60
2021/09/20 00:56:35;;;;;;;;;;;;;;;12.07;84.46;96912.72;30001;983;1858;-60
2021/09/20 00:57:09;;;;;;;;;;;;;;;12.05;84.72;96910.28;30001;982;1872;-60
2021/09/20 00:57:40;;;;;;;;;;;;;;;12.05;84.92;96913.00;30001;982;1880;-60
2021/09/20 00:58:12;;;;;;;;;;;;;;;12.04;84.68;96913.31;30001;982;1876;-59
2021/09/20 00:58:43;;;;;;;;;;;;;;;12.03;85.05;96920.66;30001;982;1859;-60
2021/09/20 00:59:14;;;;;;;;;;;;;;;12.04;85.06;96918.75;30001;982;1872;-60
2021/09/20 00:59:45;;;;;;;;;;;;;;;12.02;84.97;96913.59;30001;982;1881;-61
2021/09/20 01:00:16;;;;;;;;;;;;;;;12.01;85.10;96920.16;30001;983;1875;-60
2021/09/20 01:00:47;;;;;;;;;;;;;;;12.00;85.33;96920.44;30001;983;1880;-60
2021/09/20 01:01:19;;;;;;;;;;;;;;;12.00;85.46;96923.97;30001;983;1854;-61
2021/09/20 01:01:50;;;;;;;;;;;;;;;11.98;85.57;96920.75;30001;983;1875;-61
2021/09/20 01:02:21;;;;;;;;;;;;;;;11.95;85.49;96918.62;30001;983;1876;-60
2021/09/20 01:02:52;;;;;;;;;;;;;;;11.97;85.52;96919.13;30001;983;1858;-59
2021/09/20 01:03:23;;;;;;;;;;;;;;;11.96;85.66;96922.97;30001;983;1871;-59
2021/09/20 01:03:54;;;;;;;;;;;;;;;11.94;85.41;96918.94;30001;983;1880;-60
2021/09/20 01:04:24;;;;;;;;;;;;;;;11.93;85.80;96925.47;30001;982;1876;-60
2021/09/20 01:04:55;;;;;;;;;;;;;;;11.92;85.43;96921.94;30001;982;1788;-60
2021/09/20 01:05:26;;;;;;;;;;;;;;;11.91;85.79;96919.53;30001;982;1876;-60
2021/09/20 01:05:58;;;;;;;;;;;;;;;11.91;85.75;96920.34;30001;982;1858;-59
2021/09/20 01:06:29;;;;;;;;;;;;;;;11.92;85.75;96927.38;30001;982;1872;-60
2021/09/20 01:07:00;;;;;;;;;;;;;;;11.92;86.03;96921.94;30001;983;1880;-61
2021/09/20 01:07:31;;;;;;;;;;;;;;;11.91;86.39;96919.53;30001;983;1875;-60
2021/09/20 01:08:03;;;;;;;;;;;;;;;11.90;86.00;96918.72;30001;983;1880;-61
2021/09/20 01:08:34;;;;;;;;;;;;;;;11.91;86.31;96919.53;30001;983;1875;-61
2021/09/20 01:09:05;;;;;;;;;;;;;;;11.90;86.09;96926.88;30001;983;1880;-60
2021/09/20 01:09:40;;;;;;;;;;;;;;;11.89;86.43;96927.19;30001;983;1854;-60
2021/09/20 01:10:12;;;;;;;;;;;;;;;11.87;86.39;96924.75;30001;983;1876;-60
2021/09/20 01:10:43;;;;;;;;;;;;;;;11.86;86.30;96912.28;30001;983;1854;-60
2021/09/20 01:11:15;;;;;;;;;;;;;;;11.85;86.19;96926.97;30001;983;1876;-60
2021/09/20 01:11:46;;;;;;;;;;;;;;;11.86;86.10;96923.16;30001;983;1876;-60
2021/09/20 01:12:17;;;;;;;;;;;;;;;11.87;86.04;96922.03;30001;982;1880;-59
2021/09/20 01:12:48;;;;;;;;;;;;;;;11.87;85.87;96923.94;30001;982;1876;-60
2021/09/20 01:13:18;;;;;;;;;;;;;;;11.86;85.62;96925.88;30001;982;1880;-60
2021/09/20 01:13:49;;;;;;;;;;;;;;;11.86;86.11;96920.44;30001;982;1876;-59
2021/09/20 01:14:20;;;;;;;;;;;;;;;11.86;85.67;96923.16;30001;982;1859;-60
2021/09/20 01:14:51;;;;;;;;;;;;;;;11.85;85.75;96921.53;30001;983;1871;-59
2021/09/20 01:15:22;;;;;;;;;;;;;;;11.85;85.46;96926.16;30001;983;1880;-59
2021/09/20 01:15:53;;;;;;;;;;;;;;;11.84;85.29;96925.34;30001;983;1875;-59
2021/09/20 01:16:24;;;;;;;;;;;;;;;11.84;85.42;96924.53;30001;983;1880;-60
2021/09/20 01:16:55;;;;;;;;;;;;;;;11.84;85.61;96924.53;30001;983;1853;-60
2021/09/20 01:17:26;;;;;;;;;;;;;;;11.85;85.42;96926.16;30001;983;1875;-60
2021/09/20 01:17:57;;;;;;;;;;;;;;;11.85;85.69;96918.81;30001;983;1876;-59
2021/09/20 01:18:28;;;;;;;;;;;;;;;11.85;85.49;96924.25;30001;983;1858;-61
2021/09/20 01:18:58;;;;;;;;;;;;;;;11.87;85.47;96929.37;30001;983;1871;-60
2021/09/20 01:19:29;;;;;;;;;;;;;;;11.86;85.64;96928.56;30001;982;1858;-59
2021/09/20 01:20:01;;;;;;;;;;;;;;;11.87;85.57;96930.19;30001;982;1871;-59
2021/09/20 01:20:31;;;;;;;;;;;;;;;11.89;85.44;96927.19;30001;982;1880;-60
2021/09/20 01:21:03;;;;;;;;;;;;;;;11.88;85.82;96931.00;30001;982;1876;-60
2021/09/20 01:21:33;;;;;;;;;;;;;;;11.89;85.56;96927.19;30001;982;1880;-61
2021/09/20 01:22:09;;;;;;;;;;;;;;;11.89;85.82;96927.19;30001;983;1875;-61
2021/09/20 01:22:40;;;;;;;;;;;;;;;11.89;85.72;96927.97;30001;983;1858;-60
2021/09/20 01:23:11;;;;;;;;;;;;;;;11.89;85.73;96924.47;30001;983;1871;-60
2021/09/20 01:23:43;;;;;;;;;;;;;;;11.90;85.49;96924.16;30001;983;1880;-60
2021/09/20 01:24:14;;;;;;;;;;;;;;;11.90;85.60;96924.16;30001;983;1875;-60
2021/09/20 01:24:45;;;;;;;;;;;;;;;11.92;85.44;96926.59;30001;983;1880;-60
2021/09/20 01:25:16;;;;;;;;;;;;;;;11.91;85.71;96925.78;30001;983;1854;-59
2021/09/20 01:25:50;;;;;;;;;;;;;;;11.90;85.51;96921.44;30001;983;1876;-60
2021/09/20 01:26:21;;;;;;;;;;;;;;;11.89;85.66;96927.19;30001;983;1876;-60
2021/09/20 01:26:57;;;;;;;;;;;;;;;11.90;85.63;96920.63;30001;983;1880;-59
2021/09/20 01:27:29;;;;;;;;;;;;;;;11.90;85.34;96929.59;30001;982;1876;-59
2021/09/20 01:28:00;;;;;;;;;;;;;;;11.91;85.42;96925.78;30001;982;1880;-59
2021/09/20 01:28:31;;;;;;;;;;;;;;;11.90;85.35;96935.03;30001;982;1876;-60
2021/09/20 01:29:04;;;;;;;;;;;;;;;11.91;85.34;96925.78;30001;982;1881;-59
2021/09/20 01:29:35;;;;;;;;;;;;;;;11.91;85.32;96917.62;30001;983;1875;-60
2021/09/20 01:30:06;;;;;;;;;;;;;;;11.92;85.39;96926.59;30001;983;1880;-60
2021/09/20 01:30:37;;;;;;;;;;;;;;;11.91;85.18;96923.06;30001;983;1853;-61
2021/09/20 01:31:08;;;;;;;;;;;;;;;11.92;85.53;96926.59;30001;983;1875;-61
2021/09/20 01:31:41;;;;;;;;;;;;;;;11.92;85.31;96930.09;30001;983;1875;-60
2021/09/20 01:32:12;;;;;;;;;;;;;;;11.92;85.18;96923.84;30001;983;1880;-60
2021/09/20 01:32:45;;;;;;;;;;;;;;;11.91;85.45;96920.34;30001;983;1876;-59
2021/09/20 01:33:16;;;;;;;;;;;;;;;11.92;85.30;96921.94;30001;983;1880;-59
2021/09/20 01:33:46;;;;;;;;;;;;;;;11.92;85.55;96916.50;30001;983;1876;-61
2021/09/20 01:34:20;;;;;;;;;;;;;;;11.93;85.36;96923.56;30001;983;1880;-60
2021/09/20 01:34:51;;;;;;;;;;;;;;;11.92;85.59;96921.94;30001;982;1876;-60
2021/09/20 01:35:22;;;;;;;;;;;;;;;11.92;85.46;96924.66;30001;982;1859;-60
2021/09/20 01:35:54;;;;;;;;;;;;;;;11.93;85.84;96915.41;30001;982;1872;-60
2021/09/20 01:36:26;;;;;;;;;;;;;;;11.93;86.26;96920.84;30001;982;1880;-59
2021/09/20 01:36:57;;;;;;;;;;;;;;;11.92;86.09;96926.59;30002;982;1876;-60
2021/09/20 01:37:28;;;;;;;;;;;;;;;11.92;85.67;96916.50;30002;983;1880;-59
2021/09/20 01:37:59;;;;;;;;;;;;;;;11.92;85.99;96927.38;30002;983;1875;-59
2021/09/20 01:38:30;;;;;;;;;;;;;;;11.93;85.83;96920.84;30002;983;1880;-60
2021/09/20 01:39:00;;;;;;;;;;;;;;;11.92;86.10;96916.50;30002;983;1876;-61
2021/09/20 01:39:32;;;;;;;;;;;;;;;11.92;86.05;96916.50;30002;983;1880;-60
2021/09/20 01:40:04;;;;;;;;;;;;;;;11.92;85.99;96919.22;30002;983;1876;-60
2021/09/20 01:40:34;;;;;;;;;;;;;;;11.94;85.56;96925.16;30002;983;1858;-59
2021/09/20 01:41:06;;;;;;;;;;;;;;;11.95;85.64;96926.78;30002;983;1849;-60
2021/09/20 01:41:37;;;;;;;;;;;;;;;11.95;85.96;96924.06;30002;982;1880;-59
2021/09/20 01:42:08;;;;;;;;;;;;;;;11.96;85.86;96917.53;30002;982;1876;-60
2021/09/20 01:42:39;;;;;;;;;;;;;;;11.98;85.62;96926.19;30002;982;1880;-60
2021/09/20 01:43:10;;;;;;;;;;;;;;;11.98;86.09;96925.38;30002;982;1876;-59
2021/09/20 01:43:41;;;;;;;;;;;;;;;12.00;85.64;96923.97;30002;982;1880;-59
2021/09/20 01:44:13;;;;;;;;;;;;;;;12.00;85.98;96923.16;30002;982;1876;-62
2021/09/20 01:44:44;;;;;;;;;;;;;;;12.00;85.92;96917.72;30002;983;1880;-60
2021/09/20 01:45:15;;;;;;;;;;;;;;;11.98;86.55;96915.31;30002;983;1875;-61
2021/09/20 01:45:46;;;;;;;;;;;;;;;11.99;86.19;96922.37;30002;983;1858;-60
2021/09/20 01:46:17;;;;;;;;;;;;;;;11.99;86.26;96916.13;30002;983;1871;-61
2021/09/20 01:46:49;;;;;;;;;;;;;;;12.00;86.07;96921.25;30002;983;1880;-62
2021/09/20 01:47:20;;;;;;;;;;;;;;;11.99;85.82;96927.81;30002;983;1876;-60
2021/09/20 01:47:51;;;;;;;;;;;;;;;12.00;85.56;96929.41;30002;983;1880;-60
2021/09/20 01:48:22;;;;;;;;;;;;;;;12.00;85.66;96923.97;30002;983;1876;-61
2021/09/20 01:48:53;;;;;;;;;;;;;;;11.98;85.52;96920.75;30002;982;1880;-60
2021/09/20 01:49:24;;;;;;;;;;;;;;;11.99;85.70;96922.37;30002;982;1876;-59
2021/09/20 01:49:55;;;;;;;;;;;;;;;11.99;85.61;96930.53;30002;982;1880;-58
2021/09/20 01:50:26;;;;;;;;;;;;;;;11.99;85.57;96930.53;30002;982;1876;-60
2021/09/20 01:50:57;;;;;;;;;;;;;;;12.01;85.58;96928.31;30002;982;1859;-59
2021/09/20 01:51:28;;;;;;;;;;;;;;;12.02;85.33;96927.22;30002;982;1872;-59
2021/09/20 01:51:59;;;;;;;;;;;;;;;12.04;85.20;96935.06;30002;982;1880;-60
2021/09/20 01:52:30;;;;;;;;;;;;;;;12.04;85.04;96925.00;30002;983;1875;-57
2021/09/20 01:53:01;;;;;;;;;;;;;;;12.04;84.90;96935.88;30002;983;1880;-60
2021/09/20 01:53:32;;;;;;;;;;;;;;;12.05;84.77;96932.03;30002;983;1853;-59
2021/09/20 01:54:04;;;;;;;;;;;;;;;12.05;84.67;96932.03;30002;983;1876;-59
2021/09/20 01:54:35;;;;;;;;;;;;;;;12.04;84.94;96930.44;30002;983;1875;-61
2021/09/20 01:55:06;;;;;;;;;;;;;;;12.04;84.65;96929.63;30002;983;1880;-61
2021/09/20 01:55:37;;;;;;;;;;;;;;;12.02;84.92;96921.75;30002;983;1876;-60
2021/09/20 01:56:08;;;;;;;;;;;;;;;12.01;84.98;96924.78;30002;983;1858;-59
2021/09/20 01:56:39;;;;;;;;;;;;;;;11.99;85.21;96925.09;30002;982;1871;-60
2021/09/20 01:57:09;;;;;;;;;;;;;;;11.99;85.02;96933.25;30002;982;1880;-60
2021/09/20 01:57:40;;;;;;;;;;;;;;;11.98;85.40;96928.91;30002;982;1876;-61
2021/09/20 01:58:11;;;;;;;;;;;;;;;11.99;85.22;96932.44;30002;982;1880;-59
2021/09/20 01:58:42;;;;;;;;;;;;;;;11.96;85.28;96928.41;30002;982;1876;-59
2021/09/20 01:59:13;;;;;;;;;;;;;;;11.96;85.76;96933.84;30002;982;1859;-60
2021/09/20 01:59:43;;;;;;;;;;;;;;;11.95;85.36;96928.69;30002;983;1871;-59
2021/09/20 02:00:18;;;;;;;;;;;;;;;11.94;85.39;96930.63;30002;983;1880;-60
2021/09/20 02:00:49;;;;;;;;;;;;;;;11.93;85.59;96928.19;30002;983;1876;-61
2021/09/20 02:01:20;;;;;;;;;;;;;;;11.92;85.34;96927.38;30002;983;1880;-61
2021/09/20 02:01:51;;;;;;;;;;;;;;;11.90;85.36;96924.16;30002;983;1854;-60
2021/09/20 02:02:21;;;;;;;;;;;;;;;11.89;85.29;96927.97;30002;983;1876;-60
2021/09/20 02:02:52;;;;;;;;;;;;;;;11.89;85.65;96933.41;30002;983;1876;-61
2021/09/20 02:03:23;;;;;;;;;;;;;;;11.87;85.67;96930.19;30002;983;1880;-60
2021/09/20 02:03:55;;;;;;;;;;;;;;;11.89;85.25;96932.62;30002;982;1876;-60
2021/09/20 02:04:26;;;;;;;;;;;;;;;11.87;85.72;96930.19;30002;982;1880;-59
2021/09/20 02:04:56;;;;;;;;;;;;;;;11.88;85.58;96936.44;30002;982;1876;-59
2021/09/20 02:05:28;;;;;;;;;;;;;;;11.88;85.41;96922.84;30002;982;1880;-60
2021/09/20 02:05:58;;;;;;;;;;;;;;;11.88;85.71;96925.56;30002;982;1876;-59
2021/09/20 02:06:29;;;;;;;;;;;;;;;11.88;85.43;96937.25;30002;982;1880;-60
2021/09/20 02:07:00;;;;;;;;;;;;;;;11.88;85.20;96931.00;30002;982;1854;-60
2021/09/20 02:07:31;;;;;;;;;;;;;;;11.87;85.44;96930.19;30002;983;1875;-60
2021/09/20 02:08:02;;;;;;;;;;;;;;;11.88;85.71;96937.25;30002;983;1775;-61
2021/09/20 02:08:33;;;;;;;;;;;;;;;11.87;85.73;96930.19;30002;983;1880;-61
2021/09/20 02:09:08;;;;;;;;;;;;;;;11.86;85.58;96934.03;30002;983;1876;-60
2021/09/20 02:09:39;;;;;;;;;;;;;;;11.85;86.02;96931.59;30002;983;1880;-60
2021/09/20 02:10:12;;;;;;;;;;;;;;;11.83;85.89;96934.63;30002;983;1876;-61
2021/09/20 02:10:43;;;;;;;;;;;;;;;11.82;85.94;96930.28;30002;983;1880;-60
2021/09/20 02:11:15;;;;;;;;;;;;;;;11.82;86.02;96921.31;30002;983;1876;-60
2021/09/20 02:11:47;;;;;;;;;;;;;;;11.80;85.92;96924.34;30002;982;1880;-61
2021/09/20 02:12:18;;;;;;;;;;;;;;;11.79;85.75;96928.16;30002;982;1854;-62
2021/09/20 02:12:49;;;;;;;;;;;;;;;11.78;85.98;96921.13;30002;986;1867;-62
2021/09/20 02:13:19;;;;;;;;;;;;;;;11.77;86.08;96930.41;30002;982;1880;-60
2021/09/20 02:13:51;;;;;;;;;;;;;;;11.77;85.75;96924.97;30002;982;1876;-59
2021/09/20 02:14:22;;;;;;;;;;;;;;;11.78;85.98;96928.50;30002;983;1858;-60
2021/09/20 02:14:52;;;;;;;;;;;;;;;11.77;85.73;96922.25;30002;983;1871;-60
2021/09/20 02:15:23;;;;;;;;;;;;;;;11.78;86.02;96932.00;30002;983;1880;-59
2021/09/20 02:15:54;;;;;;;;;;;;;;;11.79;85.77;96928.16;30002;983;1875;-59
2021/09/20 02:16:25;;;;;;;;;;;;;;;11.78;85.95;96928.50;30002;983;1880;-60
2021/09/20 02:16:55;;;;;;;;;;;;;;;11.81;85.72;96936.81;30002;983;1876;-59
2021/09/20 02:17:26;;;;;;;;;;;;;;;11.82;85.67;96924.03;30002;983;1880;-59
2021/09/20 02:17:57;;;;;;;;;;;;;;;11.82;85.49;96933.00;30002;983;1876;-61
2021/09/20 02:18:28;;;;;;;;;;;;;;;11.82;85.64;96938.44;30002;983;1858;-59
2021/09/20 02:18:59;;;;;;;;;;;;;;;11.82;85.90;96929.47;30002;982;1872;-60
2021/09/20 02:19:29;;;;;;;;;;;;;;;11.82;86.10;96930.28;30002;982;1880;-59
2021/09/20 02:20:01;;;;;;;;;;;;;;;11.82;86.15;96938.44;30002;982;1854;-59
2021/09/20 02:20:32;;;;;;;;;;;;;;;11.81;86.02;96931.38;30002;982;1876;-60
2021/09/20 02:21:07;;;;;;;;;;;;;;;11.83;86.01;96939.25;30002;982;1854;-59
2021/09/20 02:21:37;;;;;;;;;;;;;;;11.83;86.26;96939.25;30002;983;1875;-61
2021/09/20 02:22:08;;;;;;;;;;;;;;;11.82;86.33;96938.44;30002;983;1875;-60
2021/09/20 02:22:39;;;;;;;;;;;;;;;11.82;86.05;96932.19;30002;983;1880;-60
2021/09/20 02:23:13;;;;;;;;;;;;;;;11.79;85.94;96939.03;30002;983;1875;-60
2021/09/20 02:23:44;;;;;;;;;;;;;;;11.79;85.91;96939.03;30002;983;1880;-60
2021/09/20 02:24:16;;;;;;;;;;;;;;;11.75;85.78;96938.00;30002;983;1876;-61
2021/09/20 02:24:47;;;;;;;;;;;;;;;11.73;86.08;96934.78;30002;983;1880;-59
2021/09/20 02:25:18;;;;;;;;;;;;;;;11.70;85.74;96938.09;30002;983;1854;-62
2021/09/20 02:25:49;;;;;;;;;;;;;;;11.69;85.89;96937.28;30002;983;1823;-59
2021/09/20 02:26:21;;;;;;;;;;;;;;;11.71;86.14;96942.44;30002;983;1876;-60
2021/09/20 02:26:52;;;;;;;;;;;;;;;11.71;86.03;96942.44;30002;982;1880;-61
2021/09/20 02:27:23;;;;;;;;;;;;;;;11.71;86.04;96937.00;30002;982;1876;-60
2021/09/20 02:27:57;;;;;;;;;;;;;;;11.71;85.84;96942.44;30002;982;1858;-60
2021/09/20 02:28:28;;;;;;;;;;;;;;;11.72;86.01;96938.59;30001;982;1872;-60
2021/09/20 02:28:58;;;;;;;;;;;;;;;11.70;86.26;96940.81;30001;982;1880;-60
2021/09/20 02:29:29;;;;;;;;;;;;;;;11.71;85.98;96939.72;30001;983;1875;-60
2021/09/20 02:30:04;;;;;;;;;;;;;;;11.71;85.94;96937.00;30001;983;1880;-59
2021/09/20 02:30:35;;;;;;;;;;;;;;;11.72;86.10;96938.59;30001;983;1876;-59
2021/09/20 02:31:07;;;;;;;;;;;;;;;11.72;86.28;96944.03;30001;983;1880;-59
2021/09/20 02:31:38;;;;;;;;;;;;;;;11.73;86.29;96940.22;30001;983;1876;-61
2021/09/20 02:32:09;;;;;;;;;;;;;;;11.72;86.31;96939.41;30001;983;1880;-60
2021/09/20 02:32:41;;;;;;;;;;;;;;;11.73;86.66;96935.59;30001;983;1854;-60
2021/09/20 02:33:12;;;;;;;;;;;;;;;11.74;86.46;96936.41;30001;983;1854;-61
2021/09/20 02:33:46;;;;;;;;;;;;;;;11.73;86.52;96941.03;30001;983;1876;-60
2021/09/20 02:34:17;;;;;;;;;;;;;;;11.73;86.54;96934.78;30001;982;1880;-59
2021/09/20 02:34:48;;;;;;;;;;;;;;;11.72;86.36;96938.59;30001;982;1876;-59
2021/09/20 02:35:21;;;;;;;;;;;;;;;11.70;86.65;96940.81;30001;982;1880;-61
2021/09/20 02:35:51;;;;;;;;;;;;;;;11.69;86.71;96939.19;30001;982;1876;-61
2021/09/20 02:36:23;;;;;;;;;;;;;;;11.68;86.80;96938.41;30001;982;1880;-59
2021/09/20 02:36:54;;;;;;;;;;;;;;;11.69;86.93;96933.78;30001;983;1875;-60
2021/09/20 02:37:25;;;;;;;;;;;;;;;11.68;86.41;96943.03;30001;983;1858;-60
2021/09/20 02:37:56;;;;;;;;;;;;;;;11.68;86.64;96945.75;30001;983;1871;-61
2021/09/20 02:38:29;;;;;;;;;;;;;;;11.68;86.55;96943.03;30001;983;1880;-60
2021/09/20 02:39:00;;;;;;;;;;;;;;;11.66;86.54;96940.59;30001;983;1875;-61
2021/09/20 02:39:31;;;;;;;;;;;;;;;11.65;86.89;96943.63;30001;983;1880;-60
2021/09/20 02:40:03;;;;;;;;;;;;;;;11.66;86.69;96939.81;30001;983;1854;-60
2021/09/20 02:40:35;;;;;;;;;;;;;;;11.66;86.71;96934.38;30001;983;1876;-61
2021/09/20 02:41:07;;;;;;;;;;;;;;;11.66;86.61;96934.38;30001;983;1876;-58
2021/09/20 02:41:38;;;;;;;;;;;;;;;11.67;86.51;96941.41;30001;982;1858;-59
2021/09/20 02:42:09;;;;;;;;;;;;;;;11.66;86.54;96937.87;30001;982;1872;-61
2021/09/20 02:42:40;;;;;;;;;;;;;;;11.64;86.70;96937.37;30001;982;1881;-61
2021/09/20 02:43:11;;;;;;;;;;;;;;;11.65;86.87;96939.00;30001;982;1876;-61
2021/09/20 02:43:42;;;;;;;;;;;;;;;11.65;86.72;96938.19;30001;982;1880;-60
2021/09/20 02:44:13;;;;;;;;;;;;;;;11.65;86.84;96939.00;30001;983;1875;-60
2021/09/20 02:44:44;;;;;;;;;;;;;;;11.64;86.77;96937.37;30001;983;1880;-60
2021/09/20 02:45:14;;;;;;;;;;;;;;;11.65;86.79;96938.19;30001;983;1853;-60
2021/09/20 02:45:45;;;;;;;;;;;;;;;11.64;86.96;96936.56;30001;983;1876;-60
2021/09/20 02:46:16;;;;;;;;;;;;;;;11.64;86.70;96942.00;30001;983;1875;-59
2021/09/20 02:46:48;;;;;;;;;;;;;;;11.63;86.89;96934.97;30001;983;1880;-59